sensor_id;sensor_type;location;lat;lon;timestamp;P1;durP1;ratioP1;P2;durP2;ratioP2
4106;SDS011;21906;50.812;7.132;2023-04-25T00:02:25;5.27;;;4.33;;
4106;SDS011;21906;50.812;7.132;2023-04-25T00:04:51;5.47;;;3.97;;
4106;SDS011;21906;50.812;7.132;2023-04-25T00:07:17;7.00;;;4.27;;
4106;SDS011;21906;50.812;7.132;2023-04-25T00:09:42;5.03;;;4.53;;
4106;SDS011;21906;50.812;7.132;2023-04-25T00:12:08;7.53;;;4.37;;
4106;SDS011;21906;50.812;7.132;2023-04-25T00:14:34;8.20;;;4.50;;
4106;SDS011;21906;50.812;7.132;2023-04-25T00:17:00;10.27;;;5.00;;
4106;SDS011;21906;50.812;7.132;2023-04-25T00:19:26;6.97;;;4.80;;
4106;SDS011;21906;50.812;7.132;2023-04-25T00:21:54;7.47;;;5.13;;
4106;SDS011;21906;50.812;7.132;2023-04-25T00:24:20;8.40;;;4.77;;
4106;SDS011;21906;50.812;7.132;2023-04-25T00:26:45;6.93;;;5.13;;
4106;SDS011;21906;50.812;7.132;2023-04-25T00:29:11;6.83;;;5.07;;
4106;SDS011;21906;50.812;7.132;2023-04-25T00:31:37;8.57;;;4.70;;
4106;SDS011;21906;50.812;7.132;2023-04-25T00:34:02;13.60;;;5.07;;
4106;SDS011;21906;50.812;7.132;2023-04-25T00:36:28;6.07;;;4.80;;
4106;SDS011;21906;50.812;7.132;2023-04-25T00:38:54;6.40;;;4.70;;
4106;SDS011;21906;50.812;7.132;2023-04-25T00:41:20;12.53;;;5.90;;
4106;SDS011;21906;50.812;7.132;2023-04-25T00:43:45;8.83;;;4.50;;
4106;SDS011;21906;50.812;7.132;2023-04-25T00:46:12;7.57;;;4.80;;
4106;SDS011;21906;50.812;7.132;2023-04-25T00:48:38;9.20;;;5.07;;
4106;SDS011;21906;50.812;7.132;2023-04-25T00:51:03;7.87;;;4.93;;
4106;SDS011;21906;50.812;7.132;2023-04-25T00:53:29;7.17;;;4.70;;
4106;SDS011;21906;50.812;7.132;2023-04-25T00:55:57;13.07;;;5.30;;
4106;SDS011;21906;50.812;7.132;2023-04-25T00:58:23;9.43;;;5.00;;
4106;SDS011;21906;50.812;7.132;2023-04-25T01:00:50;9.47;;;5.30;;
4106;SDS011;21906;50.812;7.132;2023-04-25T01:03:17;9.30;;;4.70;;
4106;SDS011;21906;50.812;7.132;2023-04-25T01:05:45;11.37;;;4.77;;
4106;SDS011;21906;50.812;7.132;2023-04-25T01:08:12;11.60;;;4.93;;
4106;SDS011;21906;50.812;7.132;2023-04-25T01:10:38;9.00;;;5.40;;
4106;SDS011;21906;50.812;7.132;2023-04-25T01:13:03;9.00;;;5.20;;
4106;SDS011;21906;50.812;7.132;2023-04-25T01:15:31;6.83;;;4.57;;
4106;SDS011;21906;50.812;7.132;2023-04-25T01:17:57;9.53;;;5.33;;
4106;SDS011;21906;50.812;7.132;2023-04-25T01:20:24;10.37;;;5.23;;
4106;SDS011;21906;50.812;7.132;2023-04-25T01:22:53;8.77;;;5.00;;
4106;SDS011;21906;50.812;7.132;2023-04-25T01:25:20;6.10;;;5.00;;
4106;SDS011;21906;50.812;7.132;2023-04-25T01:27:46;9.53;;;5.17;;
4106;SDS011;21906;50.812;7.132;2023-04-25T01:30:12;10.83;;;4.67;;
4106;SDS011;21906;50.812;7.132;2023-04-25T01:32:38;10.50;;;4.40;;
4106;SDS011;21906;50.812;7.132;2023-04-25T01:35:06;11.00;;;5.13;;
4106;SDS011;21906;50.812;7.132;2023-04-25T01:37:37;8.80;;;5.00;;
4106;SDS011;21906;50.812;7.132;2023-04-25T01:40:03;9.20;;;4.90;;
4106;SDS011;21906;50.812;7.132;2023-04-25T01:42:30;9.63;;;5.40;;
4106;SDS011;21906;50.812;7.132;2023-04-25T01:44:57;7.83;;;4.60;;
4106;SDS011;21906;50.812;7.132;2023-04-25T01:47:23;7.73;;;5.10;;
4106;SDS011;21906;50.812;7.132;2023-04-25T01:49:48;10.67;;;5.40;;
4106;SDS011;21906;50.812;7.132;2023-04-25T01:52:14;11.60;;;6.20;;
4106;SDS011;21906;50.812;7.132;2023-04-25T01:54:40;9.63;;;5.57;;
4106;SDS011;21906;50.812;7.132;2023-04-25T01:57:09;8.70;;;5.50;;
4106;SDS011;21906;50.812;7.132;2023-04-25T01:59:35;11.07;;;5.87;;
4106;SDS011;21906;50.812;7.132;2023-04-25T02:02:01;9.03;;;4.73;;
4106;SDS011;21906;50.812;7.132;2023-04-25T02:04:29;8.20;;;5.03;;
4106;SDS011;21906;50.812;7.132;2023-04-25T02:06:55;14.83;;;5.50;;
4106;SDS011;21906;50.812;7.132;2023-04-25T02:09:20;9.60;;;5.60;;
4106;SDS011;21906;50.812;7.132;2023-04-25T02:11:46;9.97;;;5.30;;
4106;SDS011;21906;50.812;7.132;2023-04-25T02:14:12;9.40;;;5.37;;
4106;SDS011;21906;50.812;7.132;2023-04-25T02:16:37;9.53;;;4.70;;
4106;SDS011;21906;50.812;7.132;2023-04-25T02:19:03;9.20;;;5.73;;
4106;SDS011;21906;50.812;7.132;2023-04-25T02:21:29;9.87;;;5.60;;
4106;SDS011;21906;50.812;7.132;2023-04-25T02:23:55;12.77;;;4.90;;
4106;SDS011;21906;50.812;7.132;2023-04-25T02:26:21;11.40;;;5.50;;
4106;SDS011;21906;50.812;7.132;2023-04-25T02:28:48;14.17;;;6.20;;
4106;SDS011;21906;50.812;7.132;2023-04-25T02:31:15;14.40;;;5.90;;
4106;SDS011;21906;50.812;7.132;2023-04-25T02:33:41;11.50;;;5.60;;
4106;SDS011;21906;50.812;7.132;2023-04-25T02:36:07;11.97;;;5.83;;
4106;SDS011;21906;50.812;7.132;2023-04-25T02:38:33;9.07;;;5.43;;
4106;SDS011;21906;50.812;7.132;2023-04-25T02:40:59;11.90;;;5.03;;
4106;SDS011;21906;50.812;7.132;2023-04-25T02:43:24;11.23;;;5.83;;
4106;SDS011;21906;50.812;7.132;2023-04-25T02:45:50;10.97;;;6.23;;
4106;SDS011;21906;50.812;7.132;2023-04-25T02:48:16;11.23;;;5.23;;
4106;SDS011;21906;50.812;7.132;2023-04-25T02:50:41;8.37;;;4.77;;
4106;SDS011;21906;50.812;7.132;2023-04-25T02:53:07;11.07;;;4.83;;
4106;SDS011;21906;50.812;7.132;2023-04-25T02:55:33;10.50;;;5.30;;
4106;SDS011;21906;50.812;7.132;2023-04-25T02:57:58;8.83;;;5.47;;
4106;SDS011;21906;50.812;7.132;2023-04-25T03:00:24;8.67;;;5.87;;
4106;SDS011;21906;50.812;7.132;2023-04-25T03:02:50;7.47;;;4.73;;
4106;SDS011;21906;50.812;7.132;2023-04-25T03:05:16;9.50;;;5.30;;
4106;SDS011;21906;50.812;7.132;2023-04-25T03:07:42;10.47;;;4.83;;
4106;SDS011;21906;50.812;7.132;2023-04-25T03:10:09;11.23;;;5.60;;
4106;SDS011;21906;50.812;7.132;2023-04-25T03:12:35;8.27;;;4.90;;
4106;SDS011;21906;50.812;7.132;2023-04-25T03:15:01;14.00;;;5.33;;
4106;SDS011;21906;50.812;7.132;2023-04-25T03:17:27;11.47;;;5.20;;
4106;SDS011;21906;50.812;7.132;2023-04-25T03:19:53;7.30;;;4.73;;
4106;SDS011;21906;50.812;7.132;2023-04-25T03:22:19;8.37;;;4.77;;
4106;SDS011;21906;50.812;7.132;2023-04-25T03:24:44;8.00;;;4.73;;
4106;SDS011;21906;50.812;7.132;2023-04-25T03:27:10;8.93;;;4.57;;
4106;SDS011;21906;50.812;7.132;2023-04-25T03:29:36;8.57;;;5.60;;
4106;SDS011;21906;50.812;7.132;2023-04-25T03:32:01;8.73;;;5.33;;
4106;SDS011;21906;50.812;7.132;2023-04-25T03:34:27;11.17;;;5.33;;
4106;SDS011;21906;50.812;7.132;2023-04-25T03:36:53;9.73;;;5.10;;
4106;SDS011;21906;50.812;7.132;2023-04-25T03:39:19;8.37;;;4.90;;
4106;SDS011;21906;50.812;7.132;2023-04-25T03:41:44;11.37;;;5.40;;
4106;SDS011;21906;50.812;7.132;2023-04-25T03:44:10;8.77;;;4.60;;
4106;SDS011;21906;50.812;7.132;2023-04-25T03:46:35;7.40;;;4.03;;
4106;SDS011;21906;50.812;7.132;2023-04-25T03:49:01;8.87;;;4.40;;
4106;SDS011;21906;50.812;7.132;2023-04-25T03:51:27;8.73;;;4.17;;
4106;SDS011;21906;50.812;7.132;2023-04-25T03:53:52;9.10;;;4.53;;
4106;SDS011;21906;50.812;7.132;2023-04-25T03:56:18;8.70;;;4.83;;
4106;SDS011;21906;50.812;7.132;2023-04-25T03:58:45;8.93;;;4.67;;
4106;SDS011;21906;50.812;7.132;2023-04-25T04:01:10;7.80;;;4.57;;
4106;SDS011;21906;50.812;7.132;2023-04-25T04:03:36;6.70;;;4.23;;
4106;SDS011;21906;50.812;7.132;2023-04-25T04:06:03;6.47;;;4.53;;
4106;SDS011;21906;50.812;7.132;2023-04-25T04:08:30;6.47;;;4.90;;
4106;SDS011;21906;50.812;7.132;2023-04-25T04:10:57;7.80;;;4.37;;
4106;SDS011;21906;50.812;7.132;2023-04-25T04:13:23;11.17;;;4.50;;
4106;SDS011;21906;50.812;7.132;2023-04-25T04:15:50;6.70;;;4.53;;
4106;SDS011;21906;50.812;7.132;2023-04-25T04:18:16;9.47;;;4.50;;
4106;SDS011;21906;50.812;7.132;2023-04-25T04:20:41;12.63;;;4.97;;
4106;SDS011;21906;50.812;7.132;2023-04-25T04:23:07;14.23;;;4.37;;
4106;SDS011;21906;50.812;7.132;2023-04-25T04:25:32;7.23;;;4.13;;
4106;SDS011;21906;50.812;7.132;2023-04-25T04:27:59;6.90;;;4.63;;
4106;SDS011;21906;50.812;7.132;2023-04-25T04:30:26;6.87;;;4.10;;
4106;SDS011;21906;50.812;7.132;2023-04-25T04:32:54;7.87;;;4.50;;
4106;SDS011;21906;50.812;7.132;2023-04-25T04:35:21;8.97;;;4.50;;
4106;SDS011;21906;50.812;7.132;2023-04-25T04:37:47;7.53;;;4.43;;
4106;SDS011;21906;50.812;7.132;2023-04-25T04:40:13;7.13;;;5.07;;
4106;SDS011;21906;50.812;7.132;2023-04-25T04:42:40;7.00;;;4.57;;
4106;SDS011;21906;50.812;7.132;2023-04-25T04:45:12;9.40;;;5.20;;
4106;SDS011;21906;50.812;7.132;2023-04-25T04:47:38;7.30;;;4.33;;
4106;SDS011;21906;50.812;7.132;2023-04-25T04:50:04;10.13;;;5.20;;
4106;SDS011;21906;50.812;7.132;2023-04-25T04:52:33;7.10;;;4.53;;
4106;SDS011;21906;50.812;7.132;2023-04-25T04:54:59;13.13;;;4.87;;
4106;SDS011;21906;50.812;7.132;2023-04-25T04:57:25;5.53;;;4.40;;
4106;SDS011;21906;50.812;7.132;2023-04-25T04:59:50;7.70;;;4.50;;
4106;SDS011;21906;50.812;7.132;2023-04-25T05:02:16;9.23;;;4.60;;
4106;SDS011;21906;50.812;7.132;2023-04-25T05:04:42;7.27;;;4.77;;
4106;SDS011;21906;50.812;7.132;2023-04-25T05:07:07;10.93;;;4.80;;
4106;SDS011;21906;50.812;7.132;2023-04-25T05:09:33;8.20;;;4.60;;
4106;SDS011;21906;50.812;7.132;2023-04-25T05:11:58;5.57;;;4.60;;
4106;SDS011;21906;50.812;7.132;2023-04-25T05:14:25;7.20;;;4.60;;
4106;SDS011;21906;50.812;7.132;2023-04-25T05:16:51;13.53;;;4.97;;
4106;SDS011;21906;50.812;7.132;2023-04-25T05:19:17;14.33;;;5.30;;
4106;SDS011;21906;50.812;7.132;2023-04-25T05:21:43;11.30;;;4.83;;
4106;SDS011;21906;50.812;7.132;2023-04-25T05:24:08;9.67;;;5.27;;
4106;SDS011;21906;50.812;7.132;2023-04-25T05:26:34;14.07;;;5.50;;
4106;SDS011;21906;50.812;7.132;2023-04-25T05:29:00;9.93;;;5.33;;
4106;SDS011;21906;50.812;7.132;2023-04-25T05:31:25;11.10;;;5.17;;
4106;SDS011;21906;50.812;7.132;2023-04-25T05:33:51;7.37;;;4.60;;
4106;SDS011;21906;50.812;7.132;2023-04-25T05:36:18;14.57;;;4.60;;
4106;SDS011;21906;50.812;7.132;2023-04-25T05:38:44;8.37;;;5.20;;
4106;SDS011;21906;50.812;7.132;2023-04-25T05:41:10;17.40;;;4.80;;
4106;SDS011;21906;50.812;7.132;2023-04-25T05:43:35;12.60;;;4.90;;
4106;SDS011;21906;50.812;7.132;2023-04-25T05:46:01;12.97;;;5.13;;
4106;SDS011;21906;50.812;7.132;2023-04-25T05:48:27;13.47;;;5.30;;
4106;SDS011;21906;50.812;7.132;2023-04-25T05:50:52;9.70;;;5.47;;
4106;SDS011;21906;50.812;7.132;2023-04-25T05:53:18;7.87;;;4.57;;
4106;SDS011;21906;50.812;7.132;2023-04-25T05:55:44;10.30;;;5.27;;
4106;SDS011;21906;50.812;7.132;2023-04-25T05:58:10;13.00;;;5.87;;
4106;SDS011;21906;50.812;7.132;2023-04-25T06:00:36;15.03;;;5.60;;
4106;SDS011;21906;50.812;7.132;2023-04-25T06:03:01;12.30;;;5.20;;
4106;SDS011;21906;50.812;7.132;2023-04-25T06:05:27;12.80;;;4.93;;
4106;SDS011;21906;50.812;7.132;2023-04-25T06:07:53;8.47;;;5.60;;
4106;SDS011;21906;50.812;7.132;2023-04-25T06:10:18;6.57;;;5.10;;
4106;SDS011;21906;50.812;7.132;2023-04-25T06:12:44;18.37;;;6.70;;
4106;SDS011;21906;50.812;7.132;2023-04-25T06:15:10;9.27;;;5.30;;
4106;SDS011;21906;50.812;7.132;2023-04-25T06:17:35;10.70;;;6.00;;
4106;SDS011;21906;50.812;7.132;2023-04-25T06:20:04;15.57;;;5.33;;
4106;SDS011;21906;50.812;7.132;2023-04-25T06:22:30;10.00;;;5.70;;
4106;SDS011;21906;50.812;7.132;2023-04-25T06:24:56;8.13;;;5.33;;
4106;SDS011;21906;50.812;7.132;2023-04-25T06:27:24;10.60;;;5.77;;
4106;SDS011;21906;50.812;7.132;2023-04-25T06:29:50;12.33;;;6.40;;
4106;SDS011;21906;50.812;7.132;2023-04-25T06:32:15;11.27;;;6.13;;
4106;SDS011;21906;50.812;7.132;2023-04-25T06:34:42;9.70;;;5.30;;
4106;SDS011;21906;50.812;7.132;2023-04-25T06:37:08;14.83;;;5.43;;
4106;SDS011;21906;50.812;7.132;2023-04-25T06:39:34;14.40;;;5.80;;
4106;SDS011;21906;50.812;7.132;2023-04-25T06:42:00;10.10;;;5.80;;
4106;SDS011;21906;50.812;7.132;2023-04-25T06:44:25;12.87;;;6.13;;
4106;SDS011;21906;50.812;7.132;2023-04-25T06:46:51;13.40;;;6.63;;
4106;SDS011;21906;50.812;7.132;2023-04-25T06:49:17;9.30;;;5.87;;
4106;SDS011;21906;50.812;7.132;2023-04-25T06:51:42;11.73;;;6.20;;
4106;SDS011;21906;50.812;7.132;2023-04-25T06:54:08;15.80;;;6.70;;
4106;SDS011;21906;50.812;7.132;2023-04-25T06:56:33;13.57;;;5.97;;
4106;SDS011;21906;50.812;7.132;2023-04-25T06:58:59;12.40;;;6.20;;
4106;SDS011;21906;50.812;7.132;2023-04-25T07:01:25;14.67;;;5.83;;
4106;SDS011;21906;50.812;7.132;2023-04-25T07:03:51;9.73;;;5.30;;
4106;SDS011;21906;50.812;7.132;2023-04-25T07:06:17;8.90;;;4.93;;
4106;SDS011;21906;50.812;7.132;2023-04-25T07:08:42;9.37;;;5.40;;
4106;SDS011;21906;50.812;7.132;2023-04-25T07:11:08;13.77;;;6.40;;
4106;SDS011;21906;50.812;7.132;2023-04-25T07:13:34;10.40;;;5.50;;
4106;SDS011;21906;50.812;7.132;2023-04-25T07:15:59;12.00;;;5.33;;
4106;SDS011;21906;50.812;7.132;2023-04-25T07:18:25;14.70;;;6.17;;
4106;SDS011;21906;50.812;7.132;2023-04-25T07:20:51;12.60;;;5.53;;
4106;SDS011;21906;50.812;7.132;2023-04-25T07:23:16;10.60;;;5.70;;
4106;SDS011;21906;50.812;7.132;2023-04-25T07:25:42;13.83;;;5.60;;
4106;SDS011;21906;50.812;7.132;2023-04-25T07:28:07;9.23;;;5.10;;
4106;SDS011;21906;50.812;7.132;2023-04-25T07:30:33;15.57;;;5.67;;
4106;SDS011;21906;50.812;7.132;2023-04-25T07:32:59;11.40;;;5.60;;
4106;SDS011;21906;50.812;7.132;2023-04-25T07:35:25;11.87;;;5.67;;
4106;SDS011;21906;50.812;7.132;2023-04-25T07:37:51;11.00;;;5.90;;
4106;SDS011;21906;50.812;7.132;2023-04-25T07:40:16;10.60;;;5.83;;
4106;SDS011;21906;50.812;7.132;2023-04-25T07:42:42;12.10;;;5.70;;
4106;SDS011;21906;50.812;7.132;2023-04-25T07:45:08;12.20;;;5.83;;
4106;SDS011;21906;50.812;7.132;2023-04-25T07:47:34;8.90;;;5.83;;
4106;SDS011;21906;50.812;7.132;2023-04-25T07:50:00;10.47;;;5.40;;
4106;SDS011;21906;50.812;7.132;2023-04-25T07:52:26;11.50;;;5.90;;
4106;SDS011;21906;50.812;7.132;2023-04-25T07:54:52;11.93;;;5.13;;
4106;SDS011;21906;50.812;7.132;2023-04-25T07:57:18;10.37;;;5.20;;
4106;SDS011;21906;50.812;7.132;2023-04-25T07:59:44;12.90;;;4.87;;
4106;SDS011;21906;50.812;7.132;2023-04-25T08:02:10;7.97;;;5.23;;
4106;SDS011;21906;50.812;7.132;2023-04-25T08:04:36;9.33;;;4.80;;
4106;SDS011;21906;50.812;7.132;2023-04-25T08:07:01;7.37;;;5.33;;
4106;SDS011;21906;50.812;7.132;2023-04-25T08:09:27;8.00;;;5.03;;
4106;SDS011;21906;50.812;7.132;2023-04-25T08:11:54;7.70;;;4.60;;
4106;SDS011;21906;50.812;7.132;2023-04-25T08:14:19;10.23;;;5.27;;
4106;SDS011;21906;50.812;7.132;2023-04-25T08:16:45;10.33;;;4.83;;
4106;SDS011;21906;50.812;7.132;2023-04-25T08:19:11;13.30;;;6.80;;
4106;SDS011;21906;50.812;7.132;2023-04-25T08:21:37;10.17;;;6.87;;
4106;SDS011;21906;50.812;7.132;2023-04-25T08:24:02;13.10;;;6.00;;
4106;SDS011;21906;50.812;7.132;2023-04-25T08:26:29;14.17;;;6.00;;
4106;SDS011;21906;50.812;7.132;2023-04-25T08:28:54;11.57;;;6.47;;
4106;SDS011;21906;50.812;7.132;2023-04-25T08:31:20;7.70;;;5.40;;
4106;SDS011;21906;50.812;7.132;2023-04-25T08:33:46;7.30;;;4.40;;
4106;SDS011;21906;50.812;7.132;2023-04-25T08:36:11;5.93;;;3.87;;
4106;SDS011;21906;50.812;7.132;2023-04-25T08:38:37;9.00;;;4.03;;
4106;SDS011;21906;50.812;7.132;2023-04-25T08:41:03;6.50;;;4.30;;
4106;SDS011;21906;50.812;7.132;2023-04-25T08:43:30;9.93;;;3.50;;
4106;SDS011;21906;50.812;7.132;2023-04-25T08:45:59;5.90;;;4.40;;
4106;SDS011;21906;50.812;7.132;2023-04-25T08:48:28;6.57;;;3.83;;
4106;SDS011;21906;50.812;7.132;2023-04-25T08:50:57;4.77;;;4.33;;
4106;SDS011;21906;50.812;7.132;2023-04-25T08:53:27;8.60;;;4.63;;
4106;SDS011;21906;50.812;7.132;2023-04-25T08:55:57;6.07;;;4.93;;
4106;SDS011;21906;50.812;7.132;2023-04-25T08:58:26;11.33;;;4.50;;
4106;SDS011;21906;50.812;7.132;2023-04-25T09:00:52;7.83;;;4.73;;
4106;SDS011;21906;50.812;7.132;2023-04-25T09:03:18;7.37;;;4.60;;
4106;SDS011;21906;50.812;7.132;2023-04-25T09:05:44;7.60;;;5.00;;
4106;SDS011;21906;50.812;7.132;2023-04-25T09:08:10;6.60;;;4.70;;
4106;SDS011;21906;50.812;7.132;2023-04-25T09:10:36;11.60;;;5.10;;
4106;SDS011;21906;50.812;7.132;2023-04-25T09:13:02;6.17;;;4.17;;
4106;SDS011;21906;50.812;7.132;2023-04-25T09:15:46;7.50;;;5.30;;
4106;SDS011;21906;50.812;7.132;2023-04-25T09:18:13;8.37;;;4.83;;
4106;SDS011;21906;50.812;7.132;2023-04-25T09:20:54;5.80;;;4.50;;
4106;SDS011;21906;50.812;7.132;2023-04-25T09:23:21;6.40;;;4.00;;
4106;SDS011;21906;50.812;7.132;2023-04-25T09:25:48;3.90;;;3.40;;
4106;SDS011;21906;50.812;7.132;2023-04-25T09:28:15;8.63;;;4.93;;
4106;SDS011;21906;50.812;7.132;2023-04-25T09:30:41;7.87;;;3.30;;
4106;SDS011;21906;50.812;7.132;2023-04-25T09:33:07;6.43;;;3.60;;
4106;SDS011;21906;50.812;7.132;2023-04-25T09:35:38;8.10;;;4.10;;
4106;SDS011;21906;50.812;7.132;2023-04-25T09:38:08;8.57;;;4.40;;
4106;SDS011;21906;50.812;7.132;2023-04-25T09:40:39;7.60;;;3.50;;
4106;SDS011;21906;50.812;7.132;2023-04-25T09:43:20;8.80;;;3.50;;
4106;SDS011;21906;50.812;7.132;2023-04-25T09:45:47;9.30;;;4.07;;
4106;SDS011;21906;50.812;7.132;2023-04-25T09:48:17;9.03;;;3.50;;
4106;SDS011;21906;50.812;7.132;2023-04-25T09:50:44;4.63;;;3.37;;
4106;SDS011;21906;50.812;7.132;2023-04-25T09:53:11;4.70;;;3.00;;
4106;SDS011;21906;50.812;7.132;2023-04-25T09:55:37;6.83;;;3.10;;
4106;SDS011;21906;50.812;7.132;2023-04-25T09:58:04;9.37;;;4.37;;
4106;SDS011;21906;50.812;7.132;2023-04-25T10:00:32;5.30;;;3.30;;
4106;SDS011;21906;50.812;7.132;2023-04-25T10:03:00;8.83;;;3.50;;
4106;SDS011;21906;50.812;7.132;2023-04-25T10:05:29;4.03;;;3.00;;
4106;SDS011;21906;50.812;7.132;2023-04-25T10:07:57;6.13;;;3.23;;
4106;SDS011;21906;50.812;7.132;2023-04-25T10:10:25;5.20;;;3.10;;
4106;SDS011;21906;50.812;7.132;2023-04-25T10:12:53;6.87;;;3.17;;
4106;SDS011;21906;50.812;7.132;2023-04-25T10:15:19;8.03;;;3.80;;
4106;SDS011;21906;50.812;7.132;2023-04-25T10:17:46;5.07;;;3.10;;
4106;SDS011;21906;50.812;7.132;2023-04-25T10:20:14;4.30;;;3.07;;
4106;SDS011;21906;50.812;7.132;2023-04-25T10:22:49;5.27;;;3.50;;
4106;SDS011;21906;50.812;7.132;2023-04-25T10:25:21;3.77;;;2.70;;
4106;SDS011;21906;50.812;7.132;2023-04-25T10:27:50;6.13;;;2.70;;
4106;SDS011;21906;50.812;7.132;2023-04-25T10:30:16;4.70;;;3.07;;
4106;SDS011;21906;50.812;7.132;2023-04-25T10:32:43;5.07;;;2.50;;
4106;SDS011;21906;50.812;7.132;2023-04-25T10:35:18;4.27;;;2.60;;
4106;SDS011;21906;50.812;7.132;2023-04-25T10:37:59;5.10;;;2.50;;
4106;SDS011;21906;50.812;7.132;2023-04-25T10:40:27;6.00;;;3.50;;
4106;SDS011;21906;50.812;7.132;2023-04-25T10:42:53;4.00;;;2.57;;
4106;SDS011;21906;50.812;7.132;2023-04-25T10:45:20;5.73;;;2.90;;
4106;SDS011;21906;50.812;7.132;2023-04-25T10:47:45;5.70;;;3.23;;
4106;SDS011;21906;50.812;7.132;2023-04-25T10:50:11;7.67;;;3.27;;
4106;SDS011;21906;50.812;7.132;2023-04-25T10:52:40;9.17;;;2.90;;
4106;SDS011;21906;50.812;7.132;2023-04-25T10:55:05;6.87;;;3.20;;
4106;SDS011;21906;50.812;7.132;2023-04-25T11:00:14;5.37;;;3.17;;
4106;SDS011;21906;50.812;7.132;2023-04-25T11:02:45;5.83;;;2.90;;
4106;SDS011;21906;50.812;7.132;2023-04-25T11:05:20;8.63;;;3.00;;
4106;SDS011;21906;50.812;7.132;2023-04-25T11:07:54;6.87;;;3.20;;
4106;SDS011;21906;50.812;7.132;2023-04-25T11:10:29;6.00;;;3.03;;
4106;SDS011;21906;50.812;7.132;2023-04-25T11:12:56;3.47;;;2.73;;
4106;SDS011;21906;50.812;7.132;2023-04-25T11:15:23;10.63;;;2.83;;
4106;SDS011;21906;50.812;7.132;2023-04-25T11:17:53;9.83;;;3.17;;
4106;SDS011;21906;50.812;7.132;2023-04-25T11:20:20;4.63;;;2.97;;
4106;SDS011;21906;50.812;7.132;2023-04-25T11:22:46;4.93;;;3.37;;
4106;SDS011;21906;50.812;7.132;2023-04-25T11:25:13;5.83;;;3.07;;
4106;SDS011;21906;50.812;7.132;2023-04-25T11:27:54;4.00;;;2.90;;
4106;SDS011;21906;50.812;7.132;2023-04-25T11:30:24;6.30;;;3.10;;
4106;SDS011;21906;50.812;7.132;2023-04-25T11:32:51;3.93;;;2.90;;
4106;SDS011;21906;50.812;7.132;2023-04-25T11:35:17;6.00;;;2.43;;
4106;SDS011;21906;50.812;7.132;2023-04-25T11:37:44;3.47;;;2.30;;
4106;SDS011;21906;50.812;7.132;2023-04-25T11:40:10;4.03;;;2.30;;
4106;SDS011;21906;50.812;7.132;2023-04-25T11:42:42;5.80;;;2.77;;
4106;SDS011;21906;50.812;7.132;2023-04-25T11:45:09;2.23;;;2.03;;
4106;SDS011;21906;50.812;7.132;2023-04-25T11:47:35;2.83;;;2.40;;
4106;SDS011;21906;50.812;7.132;2023-04-25T11:50:02;5.23;;;2.77;;
4106;SDS011;21906;50.812;7.132;2023-04-25T11:53:02;5.43;;;2.50;;
4106;SDS011;21906;50.812;7.132;2023-04-25T11:55:21;3.50;;;2.30;;
4106;SDS011;21906;50.812;7.132;2023-04-25T11:57:48;2.90;;;2.50;;
4106;SDS011;21906;50.812;7.132;2023-04-25T12:00:20;6.07;;;2.67;;
4106;SDS011;21906;50.812;7.132;2023-04-25T12:02:50;3.50;;;2.00;;
4106;SDS011;21906;50.812;7.132;2023-04-25T12:05:17;4.37;;;2.40;;
4106;SDS011;21906;50.812;7.132;2023-04-25T12:07:44;7.90;;;2.73;;
4106;SDS011;21906;50.812;7.132;2023-04-25T12:10:11;3.13;;;2.10;;
4106;SDS011;21906;50.812;7.132;2023-04-25T12:12:38;5.33;;;2.47;;
4106;SDS011;21906;50.812;7.132;2023-04-25T12:15:14;2.53;;;1.90;;
4106;SDS011;21906;50.812;7.132;2023-04-25T12:17:44;7.00;;;2.73;;
4106;SDS011;21906;50.812;7.132;2023-04-25T12:20:14;6.00;;;2.57;;
4106;SDS011;21906;50.812;7.132;2023-04-25T12:22:49;4.97;;;2.50;;
4106;SDS011;21906;50.812;7.132;2023-04-25T12:28:16;4.53;;;2.30;;
4106;SDS011;21906;50.812;7.132;2023-04-25T12:33:22;3.67;;;2.70;;
4106;SDS011;21906;50.812;7.132;2023-04-25T12:35:48;4.40;;;2.57;;
4106;SDS011;21906;50.812;7.132;2023-04-25T12:38:20;4.87;;;2.70;;
4106;SDS011;21906;50.812;7.132;2023-04-25T12:40:54;2.77;;;2.17;;
4106;SDS011;21906;50.812;7.132;2023-04-25T12:43:20;2.83;;;2.17;;
4106;SDS011;21906;50.812;7.132;2023-04-25T12:45:50;3.10;;;2.33;;
4106;SDS011;21906;50.812;7.132;2023-04-25T12:48:17;10.00;;;2.53;;
4106;SDS011;21906;50.812;7.132;2023-04-25T12:50:43;4.30;;;2.57;;
4106;SDS011;21906;50.812;7.132;2023-04-25T12:53:09;2.30;;;2.10;;
4106;SDS011;21906;50.812;7.132;2023-04-25T12:55:36;2.70;;;2.10;;
4106;SDS011;21906;50.812;7.132;2023-04-25T12:58:02;2.53;;;1.77;;
4106;SDS011;21906;50.812;7.132;2023-04-25T13:00:28;3.03;;;2.00;;
4106;SDS011;21906;50.812;7.132;2023-04-25T13:02:54;2.33;;;2.00;;
4106;SDS011;21906;50.812;7.132;2023-04-25T13:05:20;1.80;;;1.70;;
4106;SDS011;21906;50.812;7.132;2023-04-25T13:07:46;4.30;;;2.30;;
4106;SDS011;21906;50.812;7.132;2023-04-25T13:10:11;3.33;;;1.87;;
4106;SDS011;21906;50.812;7.132;2023-04-25T13:12:37;2.90;;;1.90;;
4106;SDS011;21906;50.812;7.132;2023-04-25T13:15:02;5.43;;;2.47;;
4106;SDS011;21906;50.812;7.132;2023-04-25T13:17:28;3.87;;;2.10;;
4106;SDS011;21906;50.812;7.132;2023-04-25T13:19:54;3.20;;;2.07;;
4106;SDS011;21906;50.812;7.132;2023-04-25T13:22:20;2.40;;;2.20;;
4106;SDS011;21906;50.812;7.132;2023-04-25T13:24:46;3.67;;;2.27;;
4106;SDS011;21906;50.812;7.132;2023-04-25T13:27:12;4.73;;;1.87;;
4106;SDS011;21906;50.812;7.132;2023-04-25T13:29:38;2.33;;;2.00;;
4106;SDS011;21906;50.812;7.132;2023-04-25T13:32:05;3.00;;;1.90;;
4106;SDS011;21906;50.812;7.132;2023-04-25T13:34:31;5.10;;;2.67;;
4106;SDS011;21906;50.812;7.132;2023-04-25T13:36:57;2.67;;;2.47;;
4106;SDS011;21906;50.812;7.132;2023-04-25T13:39:24;4.47;;;3.53;;
4106;SDS011;21906;50.812;7.132;2023-04-25T13:41:49;3.43;;;2.00;;
4106;SDS011;21906;50.812;7.132;2023-04-25T13:44:15;4.30;;;2.17;;
4106;SDS011;21906;50.812;7.132;2023-04-25T13:46:41;2.33;;;2.13;;
4106;SDS011;21906;50.812;7.132;2023-04-25T13:49:06;2.23;;;2.03;;
4106;SDS011;21906;50.812;7.132;2023-04-25T13:51:32;4.63;;;2.07;;
4106;SDS011;21906;50.812;7.132;2023-04-25T13:53:58;4.13;;;2.27;;
4106;SDS011;21906;50.812;7.132;2023-04-25T13:56:23;2.93;;;2.63;;
4106;SDS011;21906;50.812;7.132;2023-04-25T13:58:50;4.60;;;2.20;;
4106;SDS011;21906;50.812;7.132;2023-04-25T14:01:16;2.77;;;1.70;;
4106;SDS011;21906;50.812;7.132;2023-04-25T14:03:42;2.10;;;1.90;;
4106;SDS011;21906;50.812;7.132;2023-04-25T14:06:08;4.50;;;1.97;;
4106;SDS011;21906;50.812;7.132;2023-04-25T14:08:34;6.30;;;2.47;;
4106;SDS011;21906;50.812;7.132;2023-04-25T14:10:59;3.03;;;1.93;;
4106;SDS011;21906;50.812;7.132;2023-04-25T14:13:25;5.33;;;2.80;;
4106;SDS011;21906;50.812;7.132;2023-04-25T14:15:51;2.13;;;1.80;;
4106;SDS011;21906;50.812;7.132;2023-04-25T14:18:17;3.20;;;2.30;;
4106;SDS011;21906;50.812;7.132;2023-04-25T14:20:44;4.70;;;2.07;;
4106;SDS011;21906;50.812;7.132;2023-04-25T14:23:10;3.43;;;1.80;;
4106;SDS011;21906;50.812;7.132;2023-04-25T14:25:35;2.30;;;2.10;;
4106;SDS011;21906;50.812;7.132;2023-04-25T14:28:01;3.10;;;1.90;;
4106;SDS011;21906;50.812;7.132;2023-04-25T14:30:27;3.00;;;2.07;;
4106;SDS011;21906;50.812;7.132;2023-04-25T14:32:53;1.93;;;1.80;;
4106;SDS011;21906;50.812;7.132;2023-04-25T14:35:19;3.00;;;2.10;;
4106;SDS011;21906;50.812;7.132;2023-04-25T14:37:44;2.53;;;2.10;;
4106;SDS011;21906;50.812;7.132;2023-04-25T14:40:10;2.10;;;1.87;;
4106;SDS011;21906;50.812;7.132;2023-04-25T14:42:37;2.67;;;2.00;;
4106;SDS011;21906;50.812;7.132;2023-04-25T14:45:05;2.53;;;1.77;;
4106;SDS011;21906;50.812;7.132;2023-04-25T14:47:32;3.63;;;2.00;;
4106;SDS011;21906;50.812;7.132;2023-04-25T14:49:58;3.33;;;2.03;;
4106;SDS011;21906;50.812;7.132;2023-04-25T14:52:23;2.17;;;1.90;;
4106;SDS011;21906;50.812;7.132;2023-04-25T14:54:50;2.20;;;2.00;;
4106;SDS011;21906;50.812;7.132;2023-04-25T14:57:16;5.33;;;1.80;;
4106;SDS011;21906;50.812;7.132;2023-04-25T14:59:41;1.93;;;1.83;;
4106;SDS011;21906;50.812;7.132;2023-04-25T15:02:07;2.23;;;2.03;;
4106;SDS011;21906;50.812;7.132;2023-04-25T15:04:33;3.67;;;2.00;;